Flight Track Log - Related Links

Times and Time Zones

All times are in EST time to prevent confusion due to time zone crossing. See the EJA122 flight status page for this flight to view local times or setup timezone preferences in your user account.

Time Position Orientation Groundspeed Altitude Reporting Facility
EST Latitude Longitude Course Direction KTS MPH feet Rate Location/Type
Thu 01:35:29 PM 30.4800 -87.1297 78° East 207 238 2,800  Level Jacksonville Center
Thu 01:36:36 PM 30.5217 -87.0642 54° Northeast 226 260 5,900 2,882 Climbing Jacksonville Center
Thu 01:37:36 PM 30.5903 -87.0142 32° Northeast 243 280 8,900 2,400 Climbing Jacksonville Center
Thu 01:38:36 PM 30.6589 -86.9567 36° Northeast 275 316 10,700 1,750 Climbing Jacksonville Center
Thu 01:39:36 PM 30.7383 -86.8828 39° Northeast 317 365 12,400 1,800 Climbing Jacksonville Center
Thu 01:40:36 PM 30.8000 -86.7814 55° Northeast 360 414 14,300 1,800 Climbing Jacksonville Center
Thu 01:41:36 PM 30.8636 -86.6800 54° Northeast 371 427 16,000 1,650 Climbing Jacksonville Center
Thu 01:42:36 PM 30.9472 -86.6081 36° Northeast 371 427 17,600 1,550 Climbing Jacksonville Center
Thu 01:43:36 PM 31.0514 -86.5467 27° Northeast 378 435 19,100 976 Climbing Jacksonville Center
Thu 01:46:05 PM 31.2986 -86.3864 29° Northeast 414 476 21,000 545 Climbing Atlanta Center
Thu 01:47:05 PM 31.4064 -86.3089 32° Northeast 432 497 21,000  Level Atlanta Center
Thu 01:48:05 PM 31.5206 -86.2361 29° Northeast 453 521 21,000  Level Atlanta Center
Thu 01:49:05 PM 31.6325 -86.1633 29° Northeast 453 521 21,000  Level Atlanta Center
Thu 01:50:05 PM 31.7464 -86.0853 30° Northeast 453 521 21,000  Level Atlanta Center
Thu 01:51:05 PM 31.8667 -86.0075 29° Northeast 453 521 21,000  Level Atlanta Center
Thu 01:52:05 PM 31.9806 -85.9292 30° Northeast 458 527 21,000  Level Atlanta Center
Thu 01:53:05 PM 32.0922 -85.8578 28° Northeast 458 527 21,000  Level Atlanta Center
Thu 01:54:05 PM 32.2039 -85.7842 29° Northeast 453 521 21,000  Level Atlanta Center
Thu 01:55:05 PM 32.3156 -85.7053 31° Northeast 458 527 21,000  Level Atlanta Center
Thu 01:56:05 PM 32.4208 -85.6333 30° Northeast 447 514 21,000  Level Atlanta Center
Thu 01:57:05 PM 32.5261 -85.5614 30° Northeast 447 514 21,000  Level Atlanta Center
Thu 01:58:05 PM 32.6317 -85.4792 33° Northeast 447 514 21,000  Level Atlanta Center
Thu 01:59:05 PM 32.7369 -85.3944 34° Northeast 453 521 21,000 -450 Level Atlanta Center
Thu 02:00:05 PM 32.8422 -85.3072 35° Northeast 453 521 20,100 -1,550 Descending Atlanta Center
Thu 02:01:05 PM 32.9431 -85.2269 34° Northeast 453 521 17,900 -2,400 Descending Atlanta Center
Thu 02:02:05 PM 33.0419 -85.1539 32° Northeast 439 505 15,300 -2,200 Descending Atlanta Center
Thu 02:03:05 PM 33.1178 -85.0856 37° Northeast 403 464 13,500 -1,650 Descending Atlanta Center
Thu 02:04:05 PM 33.1914 -85.0194 37° Northeast 353 406 12,000 -950 Descending Atlanta Center
Thu 02:05:05 PM 33.2567 -84.9381 46° Northeast 325 374 11,600 -600 Descending Atlanta Center
Thu 02:06:05 PM 33.3156 -84.8592 48° Northeast 320 368 10,800 -850 Descending Atlanta Center
Thu 02:07:05 PM 33.3972 -84.8500 North 284 327 9,900 -850 Descending Atlanta Center
Thu 02:08:05 PM 33.4742 -84.8656 350° North 274 315 9,100 -900 Descending Atlanta Center
Thu 02:09:05 PM 33.5492 -84.8864 347° North 256 295 8,100 -1,150 Descending Atlanta Center
Thu 02:10:05 PM 33.6056 -84.8744 10° North 208 239 6,800 -1,050 Descending Atlanta Center
Thu 02:11:05 PM 33.6436 -84.8025 58° Northeast 202 232 6,000 -450 Descending Atlanta Center
Thu 02:12:05 PM 33.6503 -84.7350 83° East 186 214 5,900 -533 Descending Atlanta Center
Thu 02:13:20 PM 33.6500 -84.6500 90° East 206 237 4,800 -1,022 Descending Atlanta TRACON
Thu 02:14:20 PM 33.6500 -84.5833 90° East 177 204 3,600 -1,048 Descending Atlanta TRACON
Thu 02:15:26 PM 33.6500 -84.5333 90° East 158 182 2,600 -857 Descending Atlanta TRACON
Thu 02:16:26 PM 33.6500 -84.4833 90° East 117 135 1,800 -800 Descending Atlanta TRACON
Thu 02:19:00 PM 33.6367 -84.4279 70° East  Level Estimated
Thu 02:26:00 PM 33.6367 -84.4279 70° East  Level Estimated
Thu 02:27:00 PM 33.6367 -84.4279 70° East  Level Estimated

Login

Don't have an account? Register now (free) for customized features, flight alerts, and more!